sensor_id;sensor_type;location;lat;lon;timestamp;P1;durP1;ratioP1;P2;durP2;ratioP2
32850;SDS011;19202;48.992;8.390;2022-12-11T00:01:36;29.38;;;16.85;;
32850;SDS011;19202;48.992;8.390;2022-12-11T00:07:14;30.95;;;18.25;;
32850;SDS011;19202;48.992;8.390;2022-12-11T00:12:52;31.83;;;17.25;;
32850;SDS011;19202;48.992;8.390;2022-12-11T00:18:30;32.83;;;18.90;;
32850;SDS011;19202;48.992;8.390;2022-12-11T00:24:08;30.45;;;17.90;;
32850;SDS011;19202;48.992;8.390;2022-12-11T00:29:46;33.95;;;18.35;;
32850;SDS011;19202;48.992;8.390;2022-12-11T00:35:24;33.60;;;18.20;;
32850;SDS011;19202;48.992;8.390;2022-12-11T00:41:02;32.22;;;19.67;;
32850;SDS011;19202;48.992;8.390;2022-12-11T00:46:40;30.30;;;17.85;;
32850;SDS011;19202;48.992;8.390;2022-12-11T00:52:18;29.42;;;17.55;;
32850;SDS011;19202;48.992;8.390;2022-12-11T00:57:56;30.58;;;17.17;;
32850;SDS011;19202;48.992;8.390;2022-12-11T01:03:35;33.03;;;17.73;;
32850;SDS011;19202;48.992;8.390;2022-12-11T01:09:14;34.70;;;19.35;;
32850;SDS011;19202;48.992;8.390;2022-12-11T01:15:10;32.92;;;19.63;;
32850;SDS011;19202;48.992;8.390;2022-12-11T01:20:48;37.22;;;20.85;;
32850;SDS011;19202;48.992;8.390;2022-12-11T01:26:26;38.08;;;21.65;;
32850;SDS011;19202;48.992;8.390;2022-12-11T01:32:04;39.53;;;21.23;;
32850;SDS011;19202;48.992;8.390;2022-12-11T01:37:42;43.08;;;22.42;;
32850;SDS011;19202;48.992;8.390;2022-12-11T01:43:19;43.05;;;22.70;;
32850;SDS011;19202;48.992;8.390;2022-12-11T01:48:58;45.60;;;23.45;;
32850;SDS011;19202;48.992;8.390;2022-12-11T01:54:37;49.53;;;24.35;;
32850;SDS011;19202;48.992;8.390;2022-12-11T02:00:15;50.80;;;25.98;;
32850;SDS011;19202;48.992;8.390;2022-12-11T02:05:58;47.45;;;24.75;;
32850;SDS011;19202;48.992;8.390;2022-12-11T02:11:54;44.97;;;22.05;;
32850;SDS011;19202;48.992;8.390;2022-12-11T02:17:40;50.65;;;23.73;;
32850;SDS011;19202;48.992;8.390;2022-12-11T02:29:35;46.78;;;22.33;;
32850;SDS011;19202;48.992;8.390;2022-12-11T02:35:30;48.05;;;22.17;;
32850;SDS011;19202;48.992;8.390;2022-12-11T02:41:12;49.75;;;22.80;;
32850;SDS011;19202;48.992;8.390;2022-12-11T02:46:50;47.65;;;23.42;;
32850;SDS011;19202;48.992;8.390;2022-12-11T02:52:30;57.78;;;24.75;;
32850;SDS011;19202;48.992;8.390;2022-12-11T02:58:15;50.75;;;24.25;;
32850;SDS011;19202;48.992;8.390;2022-12-11T03:03:56;51.78;;;24.33;;
32850;SDS011;19202;48.992;8.390;2022-12-11T03:09:34;50.55;;;23.70;;
32850;SDS011;19202;48.992;8.390;2022-12-11T03:15:13;47.40;;;22.48;;
32850;SDS011;19202;48.992;8.390;2022-12-11T03:20:56;51.25;;;22.60;;
32850;SDS011;19202;48.992;8.390;2022-12-11T03:27:02;51.10;;;22.90;;
32850;SDS011;19202;48.992;8.390;2022-12-11T03:33:16;49.35;;;23.67;;
32850;SDS011;19202;48.992;8.390;2022-12-11T03:39:07;51.40;;;23.35;;
32850;SDS011;19202;48.992;8.390;2022-12-11T03:44:50;52.47;;;23.52;;
32850;SDS011;19202;48.992;8.390;2022-12-11T03:50:30;55.53;;;24.30;;
32850;SDS011;19202;48.992;8.390;2022-12-11T03:56:11;56.50;;;22.90;;
32850;SDS011;19202;48.992;8.390;2022-12-11T04:01:50;53.67;;;23.60;;
32850;SDS011;19202;48.992;8.390;2022-12-11T04:07:28;61.90;;;25.67;;
32850;SDS011;19202;48.992;8.390;2022-12-11T04:13:08;52.00;;;24.23;;
32850;SDS011;19202;48.992;8.390;2022-12-11T04:18:47;56.67;;;25.77;;
32850;SDS011;19202;48.992;8.390;2022-12-11T04:24:45;53.40;;;24.98;;
32850;SDS011;19202;48.992;8.390;2022-12-11T04:30:25;56.78;;;26.08;;
32850;SDS011;19202;48.992;8.390;2022-12-11T04:36:03;49.80;;;24.00;;
32850;SDS011;19202;48.992;8.390;2022-12-11T04:41:41;56.15;;;25.08;;
32850;SDS011;19202;48.992;8.390;2022-12-11T04:47:20;51.83;;;24.55;;
32850;SDS011;19202;48.992;8.390;2022-12-11T04:52:58;57.67;;;25.02;;
32850;SDS011;19202;48.992;8.390;2022-12-11T04:58:36;54.50;;;25.77;;
32850;SDS011;19202;48.992;8.390;2022-12-11T05:04:14;52.00;;;24.33;;
32850;SDS011;19202;48.992;8.390;2022-12-11T05:09:52;64.45;;;27.23;;
32850;SDS011;19202;48.992;8.390;2022-12-11T05:15:30;54.60;;;25.40;;
32850;SDS011;19202;48.992;8.390;2022-12-11T05:21:10;53.30;;;25.48;;
32850;SDS011;19202;48.992;8.390;2022-12-11T05:26:50;50.38;;;25.58;;
32850;SDS011;19202;48.992;8.390;2022-12-11T05:32:27;48.10;;;23.50;;
32850;SDS011;19202;48.992;8.390;2022-12-11T05:38:05;51.30;;;24.10;;
32850;SDS011;19202;48.992;8.390;2022-12-11T05:43:43;52.47;;;25.15;;
32850;SDS011;19202;48.992;8.390;2022-12-11T05:49:21;49.40;;;24.52;;
32850;SDS011;19202;48.992;8.390;2022-12-11T05:55:00;48.33;;;24.27;;
32850;SDS011;19202;48.992;8.390;2022-12-11T06:00:40;51.92;;;24.45;;
32850;SDS011;19202;48.992;8.390;2022-12-11T06:06:18;50.15;;;23.60;;
32850;SDS011;19202;48.992;8.390;2022-12-11T06:11:56;46.40;;;22.35;;
32850;SDS011;19202;48.992;8.390;2022-12-11T06:17:34;42.55;;;21.27;;
32850;SDS011;19202;48.992;8.390;2022-12-11T06:23:12;46.55;;;21.45;;
32850;SDS011;19202;48.992;8.390;2022-12-11T06:28:50;47.22;;;21.85;;
32850;SDS011;19202;48.992;8.390;2022-12-11T06:34:29;47.42;;;22.33;;
32850;SDS011;19202;48.992;8.390;2022-12-11T06:40:07;47.15;;;22.85;;
32850;SDS011;19202;48.992;8.390;2022-12-11T06:45:47;50.80;;;23.13;;
32850;SDS011;19202;48.992;8.390;2022-12-11T06:51:25;52.55;;;24.10;;
32850;SDS011;19202;48.992;8.390;2022-12-11T06:57:03;56.00;;;24.33;;
32850;SDS011;19202;48.992;8.390;2022-12-11T07:02:41;53.25;;;24.83;;
32850;SDS011;19202;48.992;8.390;2022-12-11T07:08:19;52.08;;;23.85;;
32850;SDS011;19202;48.992;8.390;2022-12-11T07:13:58;51.88;;;23.40;;
32850;SDS011;19202;48.992;8.390;2022-12-11T07:19:37;51.20;;;24.73;;
32850;SDS011;19202;48.992;8.390;2022-12-11T07:25:15;55.58;;;25.58;;
32850;SDS011;19202;48.992;8.390;2022-12-11T07:30:53;55.20;;;24.98;;
32850;SDS011;19202;48.992;8.390;2022-12-11T07:36:32;51.53;;;22.88;;
32850;SDS011;19202;48.992;8.390;2022-12-11T07:42:10;52.85;;;23.27;;
32850;SDS011;19202;48.992;8.390;2022-12-11T07:47:48;48.70;;;22.15;;
32850;SDS011;19202;48.992;8.390;2022-12-11T07:53:26;45.78;;;22.25;;
32850;SDS011;19202;48.992;8.390;2022-12-11T07:59:04;48.05;;;22.75;;
32850;SDS011;19202;48.992;8.390;2022-12-11T08:04:42;48.03;;;22.98;;
32850;SDS011;19202;48.992;8.390;2022-12-11T08:10:20;46.40;;;22.98;;
32850;SDS011;19202;48.992;8.390;2022-12-11T08:16:03;52.72;;;24.42;;
32850;SDS011;19202;48.992;8.390;2022-12-11T08:21:42;50.40;;;24.48;;
32850;SDS011;19202;48.992;8.390;2022-12-11T08:27:21;54.13;;;24.92;;
32850;SDS011;19202;48.992;8.390;2022-12-11T08:32:59;50.63;;;22.83;;
32850;SDS011;19202;48.992;8.390;2022-12-11T08:38:37;55.80;;;26.50;;
32850;SDS011;19202;48.992;8.390;2022-12-11T08:44:15;53.25;;;25.52;;
32850;SDS011;19202;48.992;8.390;2022-12-11T08:49:53;48.78;;;23.50;;
32850;SDS011;19202;48.992;8.390;2022-12-11T08:55:31;49.58;;;23.15;;
32850;SDS011;19202;48.992;8.390;2022-12-11T09:01:10;44.50;;;22.83;;
32850;SDS011;19202;48.992;8.390;2022-12-11T09:06:59;44.20;;;22.38;;
32850;SDS011;19202;48.992;8.390;2022-12-11T09:12:36;39.60;;;20.58;;
32850;SDS011;19202;48.992;8.390;2022-12-11T09:18:14;43.47;;;21.55;;
32850;SDS011;19202;48.992;8.390;2022-12-11T09:23:53;46.05;;;22.42;;
32850;SDS011;19202;48.992;8.390;2022-12-11T09:29:32;48.35;;;23.13;;
32850;SDS011;19202;48.992;8.390;2022-12-11T09:35:10;50.88;;;21.55;;
32850;SDS011;19202;48.992;8.390;2022-12-11T09:40:48;52.17;;;24.42;;
32850;SDS011;19202;48.992;8.390;2022-12-11T09:46:26;42.60;;;20.60;;
32850;SDS011;19202;48.992;8.390;2022-12-11T09:58:00;45.33;;;21.42;;
32850;SDS011;19202;48.992;8.390;2022-12-11T10:04:01;52.92;;;24.30;;
32850;SDS011;19202;48.992;8.390;2022-12-11T10:21:38;44.85;;;19.88;;
32850;SDS011;19202;48.992;8.390;2022-12-11T10:27:20;44.80;;;21.10;;
32850;SDS011;19202;48.992;8.390;2022-12-11T10:38:48;47.90;;;22.98;;
32850;SDS011;19202;48.992;8.390;2022-12-11T10:44:29;41.58;;;20.73;;
32850;SDS011;19202;48.992;8.390;2022-12-11T10:50:20;42.38;;;19.05;;
32850;SDS011;19202;48.992;8.390;2022-12-11T10:56:00;45.03;;;21.13;;
32850;SDS011;19202;48.992;8.390;2022-12-11T11:01:38;40.13;;;18.95;;
32850;SDS011;19202;48.992;8.390;2022-12-11T11:12:58;38.47;;;19.00;;
32850;SDS011;19202;48.992;8.390;2022-12-11T11:18:37;41.65;;;19.50;;
32850;SDS011;19202;48.992;8.390;2022-12-11T11:24:21;40.88;;;19.40;;
32850;SDS011;19202;48.992;8.390;2022-12-11T11:30:05;38.47;;;19.13;;
32850;SDS011;19202;48.992;8.390;2022-12-11T11:35:58;38.83;;;19.15;;
32850;SDS011;19202;48.992;8.390;2022-12-11T11:47:39;35.47;;;17.10;;
32850;SDS011;19202;48.992;8.390;2022-12-11T11:53:40;39.40;;;19.27;;
32850;SDS011;19202;48.992;8.390;2022-12-11T11:59:24;41.65;;;18.33;;
32850;SDS011;19202;48.992;8.390;2022-12-11T12:05:11;36.28;;;17.92;;
32850;SDS011;19202;48.992;8.390;2022-12-11T12:10:52;38.05;;;18.08;;
32850;SDS011;19202;48.992;8.390;2022-12-11T12:16:42;40.10;;;19.23;;
32850;SDS011;19202;48.992;8.390;2022-12-11T12:22:51;35.75;;;17.33;;
32850;SDS011;19202;48.992;8.390;2022-12-11T12:28:39;38.13;;;17.17;;
32850;SDS011;19202;48.992;8.390;2022-12-11T12:34:39;36.08;;;16.90;;
32850;SDS011;19202;48.992;8.390;2022-12-11T12:40:31;38.95;;;17.42;;
32850;SDS011;19202;48.992;8.390;2022-12-11T12:52:22;33.78;;;17.55;;
32850;SDS011;19202;48.992;8.390;2022-12-11T12:58:22;36.38;;;17.40;;
32850;SDS011;19202;48.992;8.390;2022-12-11T13:04:04;37.47;;;18.20;;
32850;SDS011;19202;48.992;8.390;2022-12-11T13:09:54;32.42;;;15.27;;
32850;SDS011;19202;48.992;8.390;2022-12-11T13:15:39;32.28;;;16.63;;
32850;SDS011;19202;48.992;8.390;2022-12-11T13:27:08;32.25;;;16.00;;
32850;SDS011;19202;48.992;8.390;2022-12-11T13:33:06;31.65;;;14.90;;
32850;SDS011;19202;48.992;8.390;2022-12-11T13:38:55;33.00;;;15.55;;
32850;SDS011;19202;48.992;8.390;2022-12-11T13:44:40;34.65;;;16.67;;
32850;SDS011;19202;48.992;8.390;2022-12-11T13:50:23;31.73;;;15.23;;
32850;SDS011;19202;48.992;8.390;2022-12-11T14:01:45;29.55;;;14.65;;
32850;SDS011;19202;48.992;8.390;2022-12-11T14:07:24;32.67;;;15.93;;
32850;SDS011;19202;48.992;8.390;2022-12-11T14:13:05;33.35;;;16.33;;
32850;SDS011;19202;48.992;8.390;2022-12-11T14:18:51;30.25;;;15.38;;
32850;SDS011;19202;48.992;8.390;2022-12-11T14:24:30;34.33;;;15.73;;
32850;SDS011;19202;48.992;8.390;2022-12-11T14:30:09;35.45;;;16.27;;
32850;SDS011;19202;48.992;8.390;2022-12-11T14:35:48;36.90;;;16.88;;
32850;SDS011;19202;48.992;8.390;2022-12-11T14:41:39;37.50;;;16.98;;
32850;SDS011;19202;48.992;8.390;2022-12-11T14:47:29;37.67;;;17.52;;
32850;SDS011;19202;48.992;8.390;2022-12-11T14:53:22;36.22;;;17.95;;
32850;SDS011;19202;48.992;8.390;2022-12-11T14:59:05;33.65;;;17.63;;
32850;SDS011;19202;48.992;8.390;2022-12-11T15:16:41;35.63;;;19.02;;
32850;SDS011;19202;48.992;8.390;2022-12-11T15:22:19;39.75;;;19.85;;
32850;SDS011;19202;48.992;8.390;2022-12-11T15:28:01;36.95;;;19.27;;
32850;SDS011;19202;48.992;8.390;2022-12-11T15:33:44;35.90;;;18.63;;
32850;SDS011;19202;48.992;8.390;2022-12-11T15:39:24;35.85;;;17.10;;
32850;SDS011;19202;48.992;8.390;2022-12-11T15:45:03;42.00;;;20.25;;
32850;SDS011;19202;48.992;8.390;2022-12-11T15:50:43;34.95;;;18.15;;
32850;SDS011;19202;48.992;8.390;2022-12-11T15:56:21;33.42;;;17.98;;
32850;SDS011;19202;48.992;8.390;2022-12-11T16:02:01;34.05;;;18.20;;
32850;SDS011;19202;48.992;8.390;2022-12-11T16:07:39;37.83;;;19.30;;
32850;SDS011;19202;48.992;8.390;2022-12-11T16:13:18;38.53;;;19.17;;
32850;SDS011;19202;48.992;8.390;2022-12-11T16:18:57;34.63;;;17.77;;
32850;SDS011;19202;48.992;8.390;2022-12-11T16:24:36;40.20;;;19.95;;
32850;SDS011;19202;48.992;8.390;2022-12-11T16:30:14;36.42;;;18.90;;
32850;SDS011;19202;48.992;8.390;2022-12-11T16:35:53;34.13;;;17.73;;
32850;SDS011;19202;48.992;8.390;2022-12-11T16:41:31;32.92;;;17.83;;
32850;SDS011;19202;48.992;8.390;2022-12-11T16:47:09;31.25;;;16.08;;
32850;SDS011;19202;48.992;8.390;2022-12-11T16:52:47;32.53;;;16.27;;
32850;SDS011;19202;48.992;8.390;2022-12-11T16:58:24;34.17;;;18.20;;
32850;SDS011;19202;48.992;8.390;2022-12-11T17:04:02;38.05;;;18.08;;
32850;SDS011;19202;48.992;8.390;2022-12-11T17:09:41;32.55;;;18.02;;
32850;SDS011;19202;48.992;8.390;2022-12-11T17:15:19;32.88;;;18.05;;
32850;SDS011;19202;48.992;8.390;2022-12-11T17:20:57;34.80;;;17.35;;
32850;SDS011;19202;48.992;8.390;2022-12-11T17:26:36;32.38;;;17.77;;
32850;SDS011;19202;48.992;8.390;2022-12-11T17:32:14;34.75;;;19.38;;
32850;SDS011;19202;48.992;8.390;2022-12-11T17:37:53;38.20;;;20.20;;
32850;SDS011;19202;48.992;8.390;2022-12-11T17:43:31;38.75;;;21.38;;
32850;SDS011;19202;48.992;8.390;2022-12-11T17:49:08;39.75;;;21.08;;
32850;SDS011;19202;48.992;8.390;2022-12-11T17:54:47;40.45;;;21.17;;
32850;SDS011;19202;48.992;8.390;2022-12-11T18:00:25;37.58;;;22.42;;
32850;SDS011;19202;48.992;8.390;2022-12-11T18:06:04;38.20;;;20.23;;
32850;SDS011;19202;48.992;8.390;2022-12-11T18:11:47;36.97;;;20.10;;
32850;SDS011;19202;48.992;8.390;2022-12-11T18:17:25;37.75;;;18.40;;
32850;SDS011;19202;48.992;8.390;2022-12-11T18:23:03;40.03;;;20.52;;
32850;SDS011;19202;48.992;8.390;2022-12-11T18:28:42;42.17;;;20.23;;
32850;SDS011;19202;48.992;8.390;2022-12-11T18:34:21;48.42;;;23.45;;
32850;SDS011;19202;48.992;8.390;2022-12-11T18:39:58;43.03;;;21.13;;
32850;SDS011;19202;48.992;8.390;2022-12-11T18:45:40;45.97;;;23.63;;
32850;SDS011;19202;48.992;8.390;2022-12-11T18:51:20;40.83;;;21.13;;
32850;SDS011;19202;48.992;8.390;2022-12-11T18:57:01;45.03;;;23.52;;
32850;SDS011;19202;48.992;8.390;2022-12-11T19:02:40;41.38;;;21.50;;
32850;SDS011;19202;48.992;8.390;2022-12-11T19:08:18;43.30;;;22.50;;
32850;SDS011;19202;48.992;8.390;2022-12-11T19:13:56;48.90;;;25.50;;
32850;SDS011;19202;48.992;8.390;2022-12-11T19:19:34;46.92;;;24.70;;
32850;SDS011;19202;48.992;8.390;2022-12-11T19:25:13;44.15;;;23.98;;
32850;SDS011;19202;48.992;8.390;2022-12-11T19:30:50;44.90;;;22.98;;
32850;SDS011;19202;48.992;8.390;2022-12-11T19:36:28;42.55;;;23.13;;
32850;SDS011;19202;48.992;8.390;2022-12-11T19:42:07;43.40;;;22.67;;
32850;SDS011;19202;48.992;8.390;2022-12-11T19:47:45;47.35;;;24.55;;
32850;SDS011;19202;48.992;8.390;2022-12-11T19:53:23;39.25;;;21.88;;
32850;SDS011;19202;48.992;8.390;2022-12-11T19:59:02;42.05;;;21.17;;
32850;SDS011;19202;48.992;8.390;2022-12-11T20:04:42;44.20;;;23.63;;
32850;SDS011;19202;48.992;8.390;2022-12-11T20:10:20;38.35;;;20.58;;
32850;SDS011;19202;48.992;8.390;2022-12-11T20:15:58;43.60;;;21.20;;
32850;SDS011;19202;48.992;8.390;2022-12-11T20:21:37;44.58;;;22.30;;
32850;SDS011;19202;48.992;8.390;2022-12-11T20:27:15;43.10;;;22.42;;
32850;SDS011;19202;48.992;8.390;2022-12-11T20:32:53;42.85;;;22.50;;
32850;SDS011;19202;48.992;8.390;2022-12-11T20:38:30;41.75;;;21.83;;
32850;SDS011;19202;48.992;8.390;2022-12-11T20:44:08;46.83;;;22.65;;
32850;SDS011;19202;48.992;8.390;2022-12-11T20:49:46;45.90;;;23.73;;
32850;SDS011;19202;48.992;8.390;2022-12-11T20:55:25;49.03;;;24.13;;
32850;SDS011;19202;48.992;8.390;2022-12-11T21:01:03;46.17;;;23.35;;
32850;SDS011;19202;48.992;8.390;2022-12-11T21:06:41;47.05;;;23.42;;
32850;SDS011;19202;48.992;8.390;2022-12-11T21:12:19;45.22;;;23.13;;
32850;SDS011;19202;48.992;8.390;2022-12-11T21:17:57;46.03;;;25.13;;
32850;SDS011;19202;48.992;8.390;2022-12-11T21:23:34;50.28;;;24.75;;
32850;SDS011;19202;48.992;8.390;2022-12-11T21:29:12;43.95;;;22.95;;
32850;SDS011;19202;48.992;8.390;2022-12-11T21:34:50;45.55;;;23.52;;
32850;SDS011;19202;48.992;8.390;2022-12-11T21:40:31;42.75;;;23.13;;
32850;SDS011;19202;48.992;8.390;2022-12-11T21:46:16;42.45;;;23.30;;
32850;SDS011;19202;48.992;8.390;2022-12-11T21:51:56;47.10;;;23.00;;
32850;SDS011;19202;48.992;8.390;2022-12-11T21:57:33;43.47;;;22.90;;
32850;SDS011;19202;48.992;8.390;2022-12-11T22:03:11;47.35;;;26.40;;
32850;SDS011;19202;48.992;8.390;2022-12-11T22:08:49;48.72;;;25.42;;
32850;SDS011;19202;48.992;8.390;2022-12-11T22:14:28;45.47;;;26.05;;
32850;SDS011;19202;48.992;8.390;2022-12-11T22:20:08;48.47;;;25.02;;
32850;SDS011;19202;48.992;8.390;2022-12-11T22:25:46;44.63;;;24.88;;
32850;SDS011;19202;48.992;8.390;2022-12-11T22:31:25;48.55;;;25.48;;
32850;SDS011;19202;48.992;8.390;2022-12-11T22:37:04;48.45;;;25.10;;
32850;SDS011;19202;48.992;8.390;2022-12-11T22:42:42;49.05;;;25.50;;
32850;SDS011;19202;48.992;8.390;2022-12-11T22:48:21;46.83;;;25.27;;
32850;SDS011;19202;48.992;8.390;2022-12-11T22:54:03;47.08;;;25.40;;
32850;SDS011;19202;48.992;8.390;2022-12-11T22:59:42;47.47;;;24.25;;
32850;SDS011;19202;48.992;8.390;2022-12-11T23:05:20;44.78;;;24.02;;
32850;SDS011;19202;48.992;8.390;2022-12-11T23:10:58;43.05;;;22.10;;
32850;SDS011;19202;48.992;8.390;2022-12-11T23:16:36;41.97;;;22.42;;
32850;SDS011;19202;48.992;8.390;2022-12-11T23:22:14;38.30;;;20.85;;
32850;SDS011;19202;48.992;8.390;2022-12-11T23:27:52;35.20;;;19.67;;
32850;SDS011;19202;48.992;8.390;2022-12-11T23:33:30;38.60;;;21.05;;
32850;SDS011;19202;48.992;8.390;2022-12-11T23:39:08;36.17;;;18.52;;
32850;SDS011;19202;48.992;8.390;2022-12-11T23:44:46;41.35;;;19.85;;
32850;SDS011;19202;48.992;8.390;2022-12-11T23:50:23;37.30;;;19.55;;
32850;SDS011;19202;48.992;8.390;2022-12-11T23:56:06;36.28;;;19.40;;
